Time;durP1;ratioP1;P1;durP2;ratioP2;P2;SDS_P1;SDS_P2;PMS_P1;PMS_P2;Temp;Humidity;BMP_temperature;BMP_pressure;BME280_temperature;BME280_humidity;BME280_pressure;Samples;Min_cycle;Max_cycle;Signal;HPM_P1;HPM_P2
2022/04/10 00:01:29;;;;;;;34.03;5.00;;;5.80;29.60;;;;;;5036123;28;20533;-59
2022/04/10 00:03:56;;;;;;;34.70;4.10;;;5.70;29.60;;;;;;5030908;28;20466;-58
2022/04/10 00:06:25;;;;;;;36.70;6.80;;;5.70;29.30;;;;;;5022686;28;20467;-58
2022/04/10 00:08:52;;;;;;;35.37;4.53;;;5.70;29.80;;;;;;5028188;28;20574;-58
2022/04/10 00:11:19;;;;;;;35.47;4.60;;;5.60;29.40;;;;;;5027647;28;20856;-58
2022/04/10 00:13:46;;;;;;;40.73;8.03;;;5.60;29.40;;;;;;5029174;28;21050;-57
2022/04/10 00:16:13;;;;;;;34.70;4.50;;;5.70;30.10;;;;;;5032839;28;20493;-58
2022/04/10 00:18:40;;;;;;;38.53;4.70;;;5.70;30.00;;;;;;5028190;28;20466;-57
2022/04/10 00:21:07;;;;;;;34.93;4.50;;;5.70;29.80;;;;;;5028812;28;20478;-58
2022/04/10 00:23:35;;;;;;;36.83;4.73;;;5.60;29.60;;;;;;5026809;28;20473;-58
2022/04/10 00:26:02;;;;;;;37.07;5.43;;;5.60;29.80;;;;;;5033153;28;20458;-56
2022/04/10 00:28:29;;;;;;;34.20;4.80;;;5.60;30.30;;;;;;5030285;28;20462;-58
2022/04/10 00:30:56;;;;;;;35.77;5.70;;;5.50;29.90;;;;;;5025068;28;20474;-57
2022/04/10 00:33:23;;;;;;;34.90;4.73;;;5.40;29.80;;;;;;5019623;28;20482;-57
2022/04/10 00:35:49;;;;;;;34.77;4.60;;;5.40;30.10;;;;;;5025951;28;20525;-58
2022/04/10 00:38:16;;;;;;;35.53;5.27;;;5.30;30.10;;;;;;5027688;28;20461;-58
2022/04/10 00:40:44;;;;;;;36.10;6.60;;;5.20;30.50;;;;;;5037050;28;20481;-58
2022/04/10 00:43:11;;;;;;;35.87;5.23;;;5.20;30.30;;;;;;5024458;28;20490;-57
2022/04/10 00:45:38;;;;;;;37.07;5.60;;;5.10;30.50;;;;;;5034127;28;20458;-58
2022/04/10 00:48:05;;;;;;;37.17;5.40;;;5.10;30.90;;;;;;5033622;28;20582;-58
2022/04/10 00:50:33;;;;;;;34.97;4.60;;;5.10;31.00;;;;;;5035043;28;20965;-57
2022/04/10 00:53:00;;;;;;;35.20;5.53;;;5.10;31.10;;;;;;5039006;28;20482;-57
2022/04/10 00:55:27;;;;;;;36.00;5.57;;;5.00;31.20;;;;;;5023044;28;20836;-58
2022/04/10 00:57:55;;;;;;;36.50;5.60;;;5.00;31.60;;;;;;5027893;28;20948;-57
2022/04/10 01:00:22;;;;;;;34.80;5.00;;;5.00;32.00;;;;;;5024592;28;20455;-59
2022/04/10 01:02:49;;;;;;;34.87;4.93;;;5.00;32.20;;;;;;5028732;28;20486;-59
2022/04/10 01:05:16;;;;;;;36.20;5.23;;;5.00;32.50;;;;;;5029445;28;20474;-60
2022/04/10 01:07:43;;;;;;;34.67;5.10;;;4.90;32.30;;;;;;5040423;28;20462;-58
2022/04/10 01:10:10;;;;;;;35.50;5.87;;;4.90;32.60;;;;;;5027475;28;20474;-58
2022/04/10 01:12:37;;;;;;;35.40;5.30;;;4.90;33.30;;;;;;5028140;28;20483;-58
2022/04/10 01:15:06;;;;;;;37.00;5.90;;;4.90;33.40;;;;;;5020583;28;20471;-58
2022/04/10 01:17:33;;;;;;;35.20;4.73;;;4.80;33.30;;;;;;5021749;28;21114;-60
2022/04/10 01:20:00;;;;;;;39.43;6.13;;;4.80;33.30;;;;;;5025807;28;20458;-59
2022/04/10 01:22:35;;;;;;;35.80;5.10;;;4.70;33.60;;;;;;5024317;28;20495;-59
2022/04/10 01:25:06;;;;;;;35.40;5.20;;;4.70;33.60;;;;;;5025872;28;20469;-61
2022/04/10 01:27:37;;;;;;;35.53;5.17;;;4.60;33.70;;;;;;5026616;28;20563;-56
2022/04/10 01:30:04;;;;;;;36.00;5.47;;;4.60;33.90;;;;;;5022524;28;20521;-58
2022/04/10 01:32:31;;;;;;;35.97;5.57;;;4.50;33.90;;;;;;5024608;28;20478;-58
2022/04/10 01:35:01;;;;;;;37.20;5.27;;;4.50;34.30;;;;;;5023890;28;20459;-57
2022/04/10 01:37:28;;;;;;;35.07;5.20;;;4.50;34.30;;;;;;5034381;28;20459;-57
2022/04/10 01:39:56;;;;;;;39.77;5.93;;;4.50;34.70;;;;;;5027341;28;20505;-58
2022/04/10 01:42:23;;;;;;;37.37;5.37;;;4.50;34.60;;;;;;5030305;28;20988;-57
2022/04/10 01:44:50;;;;;;;36.80;5.47;;;4.40;34.30;;;;;;5029152;28;20474;-59
2022/04/10 01:47:17;;;;;;;34.67;5.00;;;4.40;34.40;;;;;;5036042;28;20454;-58
2022/04/10 01:49:43;;;;;;;36.40;6.10;;;4.40;34.70;;;;;;5022409;28;20462;-59
2022/04/10 01:52:10;;;;;;;37.50;5.93;;;4.40;34.60;;;;;;5023800;28;20479;-57
2022/04/10 01:54:37;;;;;;;38.20;6.73;;;4.40;34.70;;;;;;5024994;28;20471;-58
2022/04/10 01:57:06;;;;;;;34.83;4.60;;;4.40;34.70;;;;;;5025517;28;20961;-58
2022/04/10 01:59:33;;;;;;;36.30;5.80;;;4.30;34.40;;;;;;5042412;28;20494;-57
2022/04/10 02:02:00;;;;;;;36.03;5.60;;;4.30;34.60;;;;;;5016644;28;20490;-58
2022/04/10 02:04:26;;;;;;;36.47;5.67;;;4.20;34.40;;;;;;5027231;28;20463;-57
2022/04/10 02:06:53;;;;;;;36.17;5.83;;;4.20;34.60;;;;;;5022081;28;20467;-59
2022/04/10 02:09:20;;;;;;;36.97;5.93;;;4.20;34.60;;;;;;5026368;28;20458;-58
2022/04/10 02:11:47;;;;;;;38.37;5.63;;;4.20;34.40;;;;;;5027498;28;20493;-57
2022/04/10 02:14:15;;;;;;;35.47;5.03;;;4.10;34.70;;;;;;5029670;28;20469;-58
2022/04/10 02:16:41;;;;;;;37.33;5.60;;;4.10;34.70;;;;;;5024975;28;20978;-60
2022/04/10 02:19:08;;;;;;;38.60;5.70;;;4.00;34.70;;;;;;5029915;28;20463;-60
2022/04/10 02:21:35;;;;;;;37.67;5.90;;;4.00;34.50;;;;;;5030542;28;20483;-58
2022/04/10 02:24:02;;;;;;;37.83;5.43;;;4.00;35.00;;;;;;5029470;28;20470;-58
2022/04/10 02:26:29;;;;;;;37.30;5.50;;;4.00;34.80;;;;;;5025626;28;20462;-57
2022/04/10 02:28:56;;;;;;;37.10;6.50;;;3.90;35.10;;;;;;5023435;28;20466;-57
2022/04/10 02:31:24;;;;;;;37.63;5.80;;;3.90;35.00;;;;;;5024119;28;20478;-57
2022/04/10 02:33:51;;;;;;;36.40;5.70;;;3.90;35.00;;;;;;5026710;28;20470;-58
2022/04/10 02:36:19;;;;;;;38.20;7.13;;;3.80;35.10;;;;;;5024914;28;20839;-59
2022/04/10 02:38:46;;;;;;;39.30;6.03;;;3.80;35.20;;;;;;5034521;28;20998;-58
2022/04/10 02:41:12;;;;;;;37.30;5.47;;;3.80;35.10;;;;;;5029028;28;20463;-58
2022/04/10 02:43:40;;;;;;;39.93;6.00;;;3.80;35.20;;;;;;5030825;28;20471;-58
2022/04/10 02:46:06;;;;;;;39.67;6.60;;;3.70;35.20;;;;;;5023691;28;20462;-58
2022/04/10 02:48:35;;;;;;;36.10;6.27;;;3.70;35.40;;;;;;5028165;28;20455;-57
2022/04/10 02:51:02;;;;;;;36.83;6.40;;;3.70;35.50;;;;;;5026288;28;20459;-57
2022/04/10 02:53:29;;;;;;;36.50;5.73;;;3.70;35.70;;;;;;5032988;28;20525;-58
2022/04/10 02:55:56;;;;;;;35.87;5.83;;;3.60;35.50;;;;;;5030916;28;20466;-60
2022/04/10 02:58:23;;;;;;;35.80;6.13;;;3.50;35.20;;;;;;5028737;28;20471;-58
2022/04/10 03:00:49;;;;;;;38.60;6.20;;;3.50;35.30;;;;;;5032673;28;20991;-60
2022/04/10 03:03:16;;;;;;;37.27;5.73;;;3.50;35.80;;;;;;5015898;28;20876;-60
2022/04/10 03:05:44;;;;;;;36.43;5.90;;;3.50;36.10;;;;;;5019468;28;20470;-58
2022/04/10 03:08:11;;;;;;;38.10;6.07;;;3.50;36.40;;;;;;5023929;28;20467;-60
2022/04/10 03:10:38;;;;;;;36.63;5.10;;;3.50;36.10;;;;;;5024006;28;21235;-60
2022/04/10 03:13:05;;;;;;;36.97;6.17;;;3.40;35.70;;;;;;5022652;28;20487;-60
2022/04/10 03:15:31;;;;;;;38.50;6.20;;;3.40;35.60;;;;;;5020129;28;20463;-59
2022/04/10 03:17:58;;;;;;;35.23;5.40;;;3.40;36.10;;;;;;5025991;28;20977;-60
2022/04/10 03:20:25;;;;;;;38.30;6.60;;;3.40;35.70;;;;;;5029187;28;20471;-59
2022/04/10 03:22:53;;;;;;;38.10;6.57;;;3.30;35.70;;;;;;5044263;23;20490;-57
2022/04/10 03:25:20;;;;;;;36.67;6.20;;;3.30;36.20;;;;;;5041269;28;20446;-57
2022/04/10 03:27:46;;;;;;;37.47;6.03;;;3.30;36.20;;;;;;5044538;28;20466;-57
2022/04/10 03:30:13;;;;;;;38.13;6.40;;;3.30;36.40;;;;;;5042135;28;20465;-58
2022/04/10 03:32:41;;;;;;;36.30;4.90;;;3.30;36.50;;;;;;5040893;28;20484;-57
2022/04/10 03:35:08;;;;;;;36.20;5.20;;;3.30;36.50;;;;;;5045410;28;20470;-59
2022/04/10 03:37:35;;;;;;;35.30;4.93;;;3.30;36.50;;;;;;5043505;28;20465;-57
2022/04/10 03:40:04;;;;;;;38.77;5.77;;;3.30;36.60;;;;;;5043069;28;20473;-57
2022/04/10 03:42:38;;;;;;;37.17;5.37;;;3.30;36.60;;;;;;5039881;28;20486;-57
2022/04/10 03:45:06;;;;;;;36.60;5.80;;;3.30;37.10;;;;;;5045341;28;20461;-58
2022/04/10 03:47:33;;;;;;;37.30;6.07;;;3.30;36.60;;;;;;5049099;28;20457;-58
2022/04/10 03:50:00;;;;;;;40.13;5.90;;;3.30;36.80;;;;;;5049809;28;20481;-58
2022/04/10 03:52:27;;;;;;;37.27;5.40;;;3.30;36.50;;;;;;5045362;28;20478;-58
2022/04/10 03:54:53;;;;;;;37.17;5.10;;;3.30;37.00;;;;;;5050142;28;20839;-58
2022/04/10 03:57:21;;;;;;;39.90;6.10;;;3.40;37.00;;;;;;5046899;28;20466;-58
2022/04/10 03:59:48;;;;;;;39.13;5.43;;;3.40;37.10;;;;;;5058552;28;20458;-59
2022/04/10 04:02:17;;;;;;;35.27;5.10;;;3.40;37.30;;;;;;5039234;28;20470;-59
2022/04/10 04:04:43;;;;;;;40.23;6.37;;;3.40;37.20;;;;;;5039408;28;20981;-58
2022/04/10 04:07:10;;;;;;;37.03;5.43;;;3.40;37.10;;;;;;5044790;28;20469;-59
2022/04/10 04:09:37;;;;;;;35.87;5.57;;;3.40;37.20;;;;;;5042295;28;20465;-58
2022/04/10 04:12:04;;;;;;;37.10;5.70;;;3.40;37.00;;;;;;5034620;28;20480;-57
2022/04/10 04:14:32;;;;;;;37.00;6.40;;;3.40;37.00;;;;;;5044788;28;20457;-57
2022/04/10 04:16:59;;;;;;;37.80;5.87;;;3.40;37.10;;;;;;5044412;28;20465;-58
2022/04/10 04:19:26;;;;;;;37.80;5.67;;;3.40;37.10;;;;;;5044282;28;20466;-57
2022/04/10 04:21:52;;;;;;;35.40;5.07;;;3.30;36.90;;;;;;5043384;28;20467;-57
2022/04/10 04:24:19;;;;;;;37.77;5.97;;;3.30;37.30;;;;;;5042061;28;20490;-60
2022/04/10 04:26:46;;;;;;;37.03;5.60;;;3.30;37.20;;;;;;5041426;28;20462;-58
2022/04/10 04:29:12;;;;;;;36.00;4.80;;;3.30;37.20;;;;;;5041438;28;20841;-58
2022/04/10 04:31:41;;;;;;;36.57;5.03;;;3.30;37.30;;;;;;5044184;28;20982;-58
2022/04/10 04:34:11;;;;;;;39.20;5.60;;;3.20;37.50;;;;;;5050407;28;21040;-57
2022/04/10 04:36:38;;;;;;;39.23;6.13;;;3.20;37.60;;;;;;5045140;28;20474;-58
2022/04/10 04:39:04;;;;;;;36.53;5.10;;;3.20;37.70;;;;;;5047041;28;20454;-59
2022/04/10 04:41:31;;;;;;;38.47;6.27;;;3.20;37.30;;;;;;5047406;28;20449;-58
2022/04/10 04:43:58;;;;;;;38.90;6.17;;;3.30;37.60;;;;;;5049344;28;20613;-59
2022/04/10 04:46:25;;;;;;;39.70;7.40;;;3.30;37.50;;;;;;5045341;28;20465;-58
2022/04/10 04:48:53;;;;;;;35.60;5.67;;;3.30;37.50;;;;;;5050398;28;20450;-59
2022/04/10 04:51:20;;;;;;;38.73;5.87;;;3.30;37.60;;;;;;5045966;28;20466;-58
2022/04/10 04:53:47;;;;;;;36.60;5.60;;;3.30;37.50;;;;;;5046285;28;20489;-57
2022/04/10 04:56:14;;;;;;;36.17;5.33;;;3.30;37.60;;;;;;5042837;28;20466;-58
2022/04/10 04:58:40;;;;;;;38.27;5.80;;;3.30;37.60;;;;;;5051526;28;20488;-59
2022/04/10 05:01:07;;;;;;;37.30;5.80;;;3.40;37.60;;;;;;5039441;28;20489;-59
2022/04/10 05:03:34;;;;;;;36.00;5.30;;;3.40;38.10;;;;;;5043069;28;20563;-58
2022/04/10 05:06:02;;;;;;;37.33;5.50;;;3.50;37.50;;;;;;5055927;28;20473;-58
2022/04/10 05:08:29;;;;;;;36.30;6.10;;;3.60;37.10;;;;;;5047499;28;20477;-59
2022/04/10 05:10:55;;;;;;;35.60;5.60;;;3.60;37.00;;;;;;5044097;28;20968;-58
2022/04/10 05:13:22;;;;;;;37.13;5.53;;;3.80;36.70;;;;;;5041369;28;20481;-58
2022/04/10 05:15:49;;;;;;;36.47;5.73;;;4.10;36.20;;;;;;5049488;28;20454;-58
2022/04/10 05:18:17;;;;;;;37.40;6.00;;;4.50;35.20;;;;;;5047719;28;20473;-58
2022/04/10 05:20:45;;;;;;;36.20;4.80;;;4.90;34.50;;;;;;5045646;28;20888;-58
2022/04/10 05:23:16;;;;;;;35.70;5.30;;;5.30;33.50;;;;;;5047300;28;20982;-59
2022/04/10 05:25:42;;;;;;;35.07;5.07;;;5.60;32.30;;;;;;5046456;28;20454;-57
2022/04/10 05:28:09;;;;;;;33.90;5.00;;;5.90;31.20;;;;;;5045958;28;20474;-59
2022/04/10 05:30:36;;;;;;;34.67;4.83;;;6.20;30.70;;;;;;5045741;28;20470;-59
2022/04/10 05:33:03;;;;;;;35.50;4.73;;;6.40;29.90;;;;;;5044498;28;20465;-57
2022/04/10 05:35:30;;;;;;;36.07;5.40;;;6.30;29.40;;;;;;5047901;28;20461;-57
2022/04/10 05:37:56;;;;;;;34.60;4.40;;;6.50;30.00;;;;;;5049512;28;20458;-58
2022/04/10 05:40:24;;;;;;;37.57;5.77;;;6.70;30.30;;;;;;5043288;28;20466;-57
2022/04/10 05:42:51;;;;;;;32.93;3.97;;;6.90;29.30;;;;;;5040028;28;20481;-58
2022/04/10 05:45:18;;;;;;;34.30;4.80;;;7.30;28.90;;;;;;5045677;28;20458;-58
2022/04/10 05:47:45;;;;;;;34.57;4.87;;;7.60;27.80;;;;;;5049398;28;20469;-58
2022/04/10 05:50:13;;;;;;;34.67;5.20;;;8.00;27.00;;;;;;5055060;28;20469;-60
2022/04/10 05:52:40;;;;;;;35.10;4.57;;;8.60;24.20;;;;;;5052146;28;20469;-57
2022/04/10 05:55:09;;;;;;;34.93;5.20;;;8.90;23.00;;;;;;5051175;28;20469;-57
2022/04/10 05:57:37;;;;;;;36.53;5.27;;;9.20;21.90;;;;;;5042319;28;20877;-57
2022/04/10 06:00:07;;;;;;;34.27;4.97;;;9.60;20.90;;;;;;5043324;28;20474;-58
2022/04/10 06:02:34;;;;;;;34.60;5.10;;;10.10;20.00;;;;;;5044676;28;20473;-58
2022/04/10 06:05:01;;;;;;;32.70;4.10;;;11.00;18.50;;;;;;5046477;28;20470;-58
2022/04/10 06:07:28;;;;;;;33.80;5.40;;;12.10;16.50;;;;;;5043039;28;20462;-58
2022/04/10 06:09:54;;;;;;;34.10;4.83;;;13.30;14.80;;;;;;5036519;28;20466;-59
2022/04/10 06:12:22;;;;;;;32.17;5.10;;;14.60;12.90;;;;;;5041678;28;20474;-59
2022/04/10 06:14:50;;;;;;;32.50;5.00;;;15.80;10.70;;;;;;5038217;28;20986;-58
2022/04/10 06:17:16;;;;;;;31.27;4.63;;;17.00;8.30;;;;;;5043119;28;20485;-58
2022/04/10 06:19:43;;;;;;;31.50;5.10;;;18.20;6.40;;;;;;5038993;28;20476;-59
2022/04/10 06:22:10;;;;;;;32.97;4.97;;;19.20;4.90;;;;;;5041326;28;20470;-60
2022/04/10 06:24:37;;;;;;;30.77;4.57;;;20.30;3.10;;;;;;5047599;28;20477;-59
2022/04/10 06:27:04;;;;;;;29.17;4.30;;;21.50;2.00;;;;;;5046547;28;20469;-59
2022/04/10 06:29:31;;;;;;;30.40;4.73;;;22.60;1.00;;;;;;5039428;28;20466;-60
2022/04/10 06:31:59;;;;;;;28.33;3.80;;;23.40;1.00;;;;;;5038081;28;20474;-60
2022/04/10 06:34:26;;;;;;;27.90;4.23;;;24.30;1.00;;;;;;5038871;28;20477;-60
2022/04/10 06:36:52;;;;;;;28.27;4.10;;;25.10;1.00;;;;;;5043130;28;20465;-60
2022/04/10 06:39:19;;;;;;;28.10;4.10;;;26.00;1.00;;;;;;5046448;28;20446;-60
2022/04/10 06:41:46;;;;;;;27.70;4.30;;;26.70;1.00;;;;;;5054408;28;20468;-58
2022/04/10 06:44:13;;;;;;;27.80;4.10;;;27.60;1.00;;;;;;5038720;28;20497;-60
2022/04/10 06:46:39;;;;;;;27.80;3.80;;;28.30;1.00;;;;;;5034503;28;20966;-59
2022/04/10 06:49:07;;;;;;;27.07;3.53;;;28.80;1.00;;;;;;5038174;28;20462;-60
2022/04/10 06:51:34;;;;;;;26.07;3.60;;;29.30;1.00;;;;;;5038291;28;20595;-59
2022/04/10 06:54:01;;;;;;;26.30;3.70;;;30.00;1.00;;;;;;5044740;28;20482;-60
2022/04/10 06:56:28;;;;;;;27.40;4.17;;;30.70;1.00;;;;;;5045414;28;20468;-60
2022/04/10 06:58:54;;;;;;;26.13;3.80;;;31.30;1.00;;;;;;5042249;28;20458;-61
2022/04/10 07:01:21;;;;;;;26.20;3.77;;;31.80;1.00;;;;;;5041221;28;20484;-60
2022/04/10 07:03:48;;;;;;;27.10;3.60;;;32.20;1.00;;;;;;5037133;28;20478;-61
2022/04/10 07:06:16;;;;;;;25.43;3.53;;;32.50;1.00;;;;;;5038796;28;20525;-63
2022/04/10 07:08:43;;;;;;;25.90;3.20;;;32.70;1.00;;;;;;5042616;28;20983;-61
2022/04/10 07:11:10;;;;;;;26.03;3.97;;;32.90;1.00;;;;;;5042831;28;20470;-59
2022/04/10 07:13:36;;;;;;;28.10;4.80;;;33.00;1.00;;;;;;5042099;28;20585;-61
2022/04/10 07:16:03;;;;;;;24.73;3.47;;;33.70;1.00;;;;;;5038279;28;20466;-61
2022/04/10 07:18:30;;;;;;;25.60;3.70;;;34.20;1.00;;;;;;5045803;28;20458;-61
2022/04/10 07:20:57;;;;;;;24.83;3.27;;;34.70;1.00;;;;;;5041336;28;20462;-60
2022/04/10 07:23:43;;;;;;;24.80;3.63;;;34.90;1.00;;;;;;5038077;28;20493;-59
2022/04/10 07:26:11;;;;;;;25.00;3.27;;;35.20;1.00;;;;;;5038133;28;20609;-58
2022/04/10 07:28:38;;;;;;;26.07;4.30;;;35.60;1.00;;;;;;5041331;28;20540;-63
2022/04/10 07:31:06;;;;;;;25.47;3.63;;;35.80;1.00;;;;;;5040389;28;20470;-60
2022/04/10 07:33:33;;;;;;;25.73;3.73;;;36.10;1.00;;;;;;5042462;28;20477;-60
2022/04/10 07:36:00;;;;;;;24.60;3.73;;;36.40;1.00;;;;;;5044469;28;20465;-60
2022/04/10 07:38:28;;;;;;;24.60;3.83;;;36.50;1.00;;;;;;5042289;28;20466;-60
2022/04/10 07:40:55;;;;;;;26.37;3.73;;;37.00;1.00;;;;;;5047645;28;20531;-60
2022/04/10 07:43:22;;;;;;;26.40;4.30;;;37.40;1.00;;;;;;5042809;28;20506;-60
2022/04/10 07:48:33;;;;;;;25.07;3.87;;;38.00;1.00;;;;;;5042273;28;20457;-60
2022/04/10 07:51:01;;;;;;;24.13;4.40;;;38.40;1.00;;;;;;5039164;28;20467;-59
2022/04/10 07:53:30;;;;;;;23.83;3.10;;;38.80;1.00;;;;;;5045232;28;20485;-60
2022/04/10 07:55:58;;;;;;;24.60;3.90;;;38.90;1.00;;;;;;5039562;28;20886;-58
2022/04/10 07:58:25;;;;;;;25.60;4.17;;;36.90;1.00;;;;;;5037405;28;20467;-62
2022/04/10 08:00:52;;;;;;;25.50;4.80;;;37.10;1.00;;;;;;5040129;28;20478;-60
2022/04/10 08:03:19;;;;;;;25.23;4.43;;;37.10;1.00;;;;;;5038924;28;21042;-61
2022/04/10 08:05:46;;;;;;;26.90;4.40;;;36.90;1.00;;;;;;5042678;28;20465;-61
2022/04/10 08:08:13;;;;;;;25.23;4.07;;;37.00;1.00;;;;;;5042352;28;20453;-60
2022/04/10 08:10:41;;;;;;;24.13;4.13;;;38.20;1.00;;;;;;5042331;28;20462;-60
2022/04/10 08:13:07;;;;;;;24.13;3.53;;;37.70;1.00;;;;;;5044293;28;20489;-62
2022/04/10 08:15:34;;;;;;;25.50;4.30;;;38.20;1.00;;;;;;5046563;28;20464;-60
2022/04/10 08:18:01;;;;;;;24.93;4.10;;;38.00;1.00;;;;;;5042405;28;20951;-60
2022/04/10 08:20:28;;;;;;;26.50;4.60;;;38.40;1.00;;;;;;5045139;28;20461;-60
2022/04/10 08:22:59;;;;;;;24.70;4.30;;;39.80;1.00;;;;;;5047022;28;20490;-60
2022/04/10 08:25:26;;;;;;;24.97;3.53;;;39.40;1.00;;;;;;5044486;28;20454;-62
2022/04/10 08:27:54;;;;;;;24.63;3.90;;;40.10;1.00;;;;;;5048054;28;20465;-60
2022/04/10 08:30:21;;;;;;;24.40;3.47;;;40.20;1.00;;;;;;5044113;28;20489;-61
2022/04/10 08:32:48;;;;;;;25.27;4.33;;;39.60;1.00;;;;;;5037531;28;20504;-61
2022/04/10 08:35:16;;;;;;;24.20;3.90;;;37.30;1.00;;;;;;5041379;28;20489;-61
2022/04/10 08:37:42;;;;;;;26.17;3.90;;;35.80;1.00;;;;;;5052941;28;20452;-61
2022/04/10 08:40:10;;;;;;;25.47;4.10;;;34.10;1.00;;;;;;5043503;28;20473;-63
2022/04/10 08:42:37;;;;;;;27.43;4.53;;;32.10;1.00;;;;;;5039382;28;20489;-60
2022/04/10 08:45:08;;;;;;;27.87;4.87;;;31.40;1.00;;;;;;5045389;28;20482;-60
2022/04/10 08:47:35;;;;;;;26.60;4.13;;;29.80;1.00;;;;;;5046147;28;20449;-60
2022/04/10 08:50:02;;;;;;;28.10;4.60;;;28.20;1.00;;;;;;5051499;28;20466;-59
2022/04/10 08:52:29;;;;;;;32.63;5.40;;;28.10;1.00;;;;;;5046955;28;20505;-59
2022/04/10 08:54:56;;;;;;;28.30;4.40;;;27.70;1.00;;;;;;5047391;28;20473;-59
2022/04/10 08:57:23;;;;;;;27.57;3.70;;;26.90;1.00;;;;;;5047696;28;20465;-60
2022/04/10 08:59:50;;;;;;;27.10;4.20;;;26.10;1.00;;;;;;5045490;28;20967;-59
2022/04/10 09:02:18;;;;;;;29.33;4.90;;;27.00;1.00;;;;;;5060347;28;20477;-60
2022/04/10 09:04:44;;;;;;;28.97;4.07;;;27.50;1.00;;;;;;5056995;28;20473;-59
2022/04/10 09:07:13;;;;;;;27.77;4.23;;;27.90;1.00;;;;;;5039500;28;20470;-60
2022/04/10 09:09:42;;;;;;;26.30;3.90;;;29.00;1.00;;;;;;5048334;28;21063;-62
2022/04/10 09:12:10;;;;;;;26.87;4.27;;;29.30;1.00;;;;;;5049328;28;20468;-61
2022/04/10 09:14:38;;;;;;;28.67;4.13;;;28.50;1.00;;;;;;5057243;28;20458;-61
2022/04/10 09:17:13;;;;;;;28.40;4.30;;;28.50;1.00;;;;;;5049127;28;20465;-60
2022/04/10 09:19:43;;;;;;;26.80;3.57;;;29.20;1.00;;;;;;5042417;28;20468;-59
2022/04/10 09:22:23;;;;;;;28.50;4.33;;;30.10;1.00;;;;;;5063593;28;20518;-60
2022/04/10 09:25:05;;;;;;;25.90;3.40;;;31.50;1.00;;;;;;5051200;28;20500;-60
2022/04/10 09:27:32;;;;;;;26.00;3.87;;;32.60;1.00;;;;;;5050007;28;20458;-61
2022/04/10 09:30:00;;;;;;;25.90;3.70;;;31.40;1.00;;;;;;5069457;28;20453;-59
2022/04/10 09:32:37;;;;;;;26.60;3.70;;;30.20;1.00;;;;;;5072991;28;20564;-60
2022/04/10 09:35:06;;;;;;;27.10;4.07;;;28.40;1.00;;;;;;5045587;28;20458;-60
2022/04/10 09:37:41;;;;;;;27.37;3.93;;;27.30;1.00;;;;;;5048193;28;20961;-62
2022/04/10 09:40:25;;;;;;;27.97;4.00;;;28.20;1.00;;;;;;5049081;28;20461;-60
2022/04/10 09:43:01;;;;;;;29.10;4.53;;;26.90;1.00;;;;;;5040828;28;20474;-59
2022/04/10 09:45:29;;;;;;;27.77;4.13;;;25.50;1.00;;;;;;5060927;28;20490;-60
2022/04/10 09:47:56;;;;;;;27.80;3.90;;;25.20;1.00;;;;;;5050335;28;20486;-60
2022/04/10 09:50:34;;;;;;;29.23;4.37;;;26.20;1.00;;;;;;5048864;28;20458;-60
2022/04/10 09:53:08;;;;;;;28.27;3.97;;;25.10;1.00;;;;;;5049867;28;20485;-61
2022/04/10 09:55:36;;;;;;;28.30;4.37;;;23.80;1.00;;;;;;5042452;28;20941;-58
2022/04/10 09:58:07;;;;;;;28.43;4.07;;;22.70;1.00;;;;;;5047624;28;20519;-60
2022/04/10 10:00:36;;;;;;;29.50;4.80;;;22.00;1.00;;;;;;5047462;28;20531;-59
2022/04/10 10:03:05;;;;;;;29.10;4.03;;;21.60;1.00;;;;;;5049509;28;20482;-59
2022/04/10 10:05:34;;;;;;;29.07;3.80;;;20.70;1.00;;;;;;5061356;28;20887;-59
2022/04/10 10:08:02;;;;;;;29.67;3.87;;;19.80;1.00;;;;;;5051937;28;20458;-60
2022/04/10 10:10:30;;;;;;;29.23;3.27;;;19.10;1.00;;;;;;5047242;28;20466;-60
2022/04/10 10:12:59;;;;;;;30.50;3.50;;;18.70;1.00;;;;;;5049475;28;20577;-59
2022/04/10 10:15:27;;;;;;;32.27;4.30;;;18.30;1.00;;;;;;5056732;28;20461;-60
2022/04/10 10:17:54;;;;;;;31.90;4.40;;;17.80;1.00;;;;;;5055506;28;20459;-59
2022/04/10 10:20:22;;;;;;;31.50;5.40;;;17.40;1.00;;;;;;5047257;28;20473;-61
2022/04/10 10:22:50;;;;;;;30.47;4.17;;;17.20;1.00;;;;;;5046980;28;20486;-61
2022/04/10 10:25:24;;;;;;;30.07;3.70;;;20.20;1.00;;;;;;5056705;28;20474;-59
2022/04/10 10:28:17;;;;;;;31.40;3.73;;;21.50;1.00;;;;;;5048525;28;20481;-59
2022/04/10 10:30:58;;;;;;;29.80;3.90;;;21.90;1.00;;;;;;5043816;28;20574;-60
2022/04/10 10:33:27;;;;;;;28.57;3.83;;;20.60;1.00;;;;;;5056397;28;20503;-59
2022/04/10 10:35:57;;;;;;;29.23;3.80;;;19.40;1.00;;;;;;5064669;28;20489;-62
2022/04/10 10:38:26;;;;;;;29.70;3.03;;;18.60;1.00;;;;;;5056096;28;20461;-60
2022/04/10 10:41:08;;;;;;;31.87;3.33;;;17.80;1.00;;;;;;5041592;28;20459;-60
2022/04/10 10:43:35;;;;;;;30.33;3.20;;;17.30;1.00;;;;;;5057117;28;20477;-60
2022/04/10 10:46:02;;;;;;;30.77;3.07;;;17.70;1.00;;;;;;5062559;28;20465;-59
2022/04/10 10:48:37;;;;;;;31.07;4.93;;;17.90;1.00;;;;;;5039675;28;20458;-62
2022/04/10 10:51:41;;;;;;;30.97;3.60;;;17.60;1.00;;;;;;5045805;28;20458;-60
2022/04/10 10:54:12;;;;;;;32.30;4.60;;;17.00;1.00;;;;;;5046734;28;20891;-60
2022/04/10 10:56:40;;;;;;;34.70;4.07;;;16.70;1.00;;;;;;5048289;28;20461;-60
2022/04/10 10:59:35;;;;;;;31.40;3.67;;;16.70;1.60;;;;;;5056444;28;20470;-60
2022/04/10 11:02:06;;;;;;;30.17;3.60;;;19.00;1.00;;;;;;5018015;28;21013;-58
2022/04/10 11:04:39;;;;;;;30.13;3.90;;;19.60;1.00;;;;;;5060451;28;20477;-59
2022/04/10 11:07:22;;;;;;;30.33;3.70;;;19.70;1.00;;;;;;5057340;28;20453;-59
2022/04/10 11:09:58;;;;;;;29.50;2.60;;;19.50;1.00;;;;;;5048730;28;20454;-60
2022/04/10 11:12:30;;;;;;;29.73;3.07;;;18.90;1.00;;;;;;5048581;28;20474;-60
2022/04/10 11:14:59;;;;;;;32.40;4.57;;;18.40;1.00;;;;;;5055347;28;20485;-60
2022/04/10 11:17:29;;;;;;;31.63;5.47;;;18.00;1.00;;;;;;5062211;28;20933;-61
2022/04/10 11:19:58;;;;;;;30.60;4.27;;;17.80;1.00;;;;;;5061835;28;20466;-60
2022/04/10 11:22:26;;;;;;;31.23;4.07;;;17.50;1.00;;;;;;5054966;28;20473;-60
2022/04/10 11:24:58;;;;;;;31.43;4.03;;;17.10;1.00;;;;;;5050522;28;20881;-60
2022/04/10 11:27:44;;;;;;;30.90;3.40;;;16.90;1.00;;;;;;5045860;28;20462;-60
2022/04/10 11:30:13;;;;;;;31.00;4.17;;;16.80;1.00;;;;;;5052297;28;20586;-60
2022/04/10 11:32:49;;;;;;;29.87;3.70;;;16.70;1.00;;;;;;5044417;28;20469;-60
2022/04/10 11:35:19;;;;;;;30.10;3.70;;;16.40;1.00;;;;;;5057429;28;20453;-59
2022/04/10 11:37:47;;;;;;;29.57;3.43;;;16.00;1.00;;;;;;5042355;28;20470;-59
2022/04/10 11:40:19;;;;;;;31.00;4.63;;;15.70;1.00;;;;;;5046399;28;20472;-60
2022/04/10 11:42:46;;;;;;;31.77;3.50;;;15.30;1.20;;;;;;5045653;28;21049;-60
2022/04/10 11:45:14;;;;;;;31.03;3.50;;;14.90;2.30;;;;;;5067463;28;21080;-59
2022/04/10 11:47:42;;;;;;;31.50;3.50;;;14.50;3.40;;;;;;5053918;28;20954;-58
2022/04/10 11:50:11;;;;;;;32.83;4.27;;;14.10;4.40;;;;;;5049904;28;20557;-61
2022/04/10 11:52:38;;;;;;;32.73;4.50;;;13.70;5.30;;;;;;5066970;28;20543;-59
2022/04/10 11:55:08;;;;;;;31.87;4.50;;;13.40;5.80;;;;;;5046039;28;20960;-60
2022/04/10 11:57:39;;;;;;;34.30;5.17;;;13.10;7.30;;;;;;5051676;28;20545;-60
2022/04/10 12:00:09;;;;;;;33.60;4.03;;;13.00;7.90;;;;;;5051928;28;20450;-59
2022/04/10 12:02:38;;;;;;;31.73;4.13;;;12.90;8.30;;;;;;5059796;28;20472;-59
2022/04/10 12:05:07;;;;;;;33.70;5.20;;;12.90;8.40;;;;;;5056416;28;20490;-59
2022/04/10 12:07:36;;;;;;;32.40;4.27;;;13.00;9.00;;;;;;5048583;28;21216;-61
2022/04/10 12:10:03;;;;;;;31.40;4.03;;;13.00;8.30;;;;;;5055394;28;20476;-58
2022/04/10 12:12:37;;;;;;;32.20;4.50;;;13.10;9.00;;;;;;5060975;28;20477;-57
2022/04/10 12:15:16;;;;;;;32.07;4.20;;;13.10;9.80;;;;;;5054262;28;20476;-58
2022/04/10 12:17:42;;;;;;;35.00;5.43;;;13.00;9.00;;;;;;5043039;28;20500;-59
2022/04/10 12:20:11;;;;;;;31.00;3.30;;;13.10;8.50;;;;;;5052316;28;20457;-59
2022/04/10 12:22:38;;;;;;;31.03;2.70;;;13.10;8.30;;;;;;5059183;28;21010;-58
2022/04/10 12:25:06;;;;;;;31.10;3.33;;;13.20;6.00;;;;;;5052625;28;20484;-61
2022/04/10 12:27:33;;;;;;;31.50;3.50;;;13.40;4.50;;;;;;5054561;28;20959;-59
2022/04/10 12:30:08;;;;;;;31.30;3.20;;;13.50;5.90;;;;;;5051133;28;20493;-59
2022/04/10 12:32:36;;;;;;;30.80;3.17;;;13.50;5.20;;;;;;5056495;28;20543;-60
2022/04/10 12:35:10;;;;;;;31.27;3.37;;;13.50;5.40;;;;;;5064289;28;20462;-59
2022/04/10 12:37:38;;;;;;;32.27;4.33;;;13.40;4.70;;;;;;5041263;28;20473;-59
2022/04/10 12:40:06;;;;;;;31.20;3.03;;;13.30;6.20;;;;;;5046859;28;20462;-59
2022/04/10 12:42:41;;;;;;;30.90;3.20;;;13.30;5.50;;;;;;5054844;28;20488;-60
2022/04/10 12:45:11;;;;;;;32.33;3.60;;;13.30;6.80;;;;;;5057884;28;20485;-60
2022/04/10 12:47:46;;;;;;;32.10;4.00;;;13.40;5.60;;;;;;5049089;28;21096;-59
2022/04/10 12:50:15;;;;;;;32.10;3.80;;;13.40;5.10;;;;;;5049587;28;20886;-61
2022/04/10 12:52:44;;;;;;;31.63;3.53;;;13.40;7.60;;;;;;5043456;28;21006;-59
2022/04/10 12:55:18;;;;;;;31.07;4.10;;;13.40;6.80;;;;;;5047716;28;20528;-59